createdAt,value
2024-03-25T00:00:04.263Z,97.21
2024-03-25T00:01:04.267Z,97.31
2024-03-25T00:02:04.284Z,97.21
2024-03-25T00:03:04.235Z,97.21
2024-03-25T00:04:04.235Z,97.11
2024-03-25T00:05:04.214Z,97.11
2024-03-25T00:06:04.254Z,97.21
2024-03-25T00:07:04.203Z,97.31
2024-03-25T00:08:04.184Z,97.31
2024-03-25T00:09:04.168Z,97.21
2024-03-25T00:10:04.157Z,97.42
2024-03-25T00:11:04.147Z,97.42
2024-03-25T00:12:04.134Z,97.31
2024-03-25T00:13:04.156Z,97.11
2024-03-25T00:14:04.124Z,96.91
2024-03-25T00:15:04.107Z,97.01
2024-03-25T00:16:04.085Z,97.01
2024-03-25T00:17:04.132Z,96.91
2024-03-25T00:18:04.054Z,96.28
2024-03-25T00:19:04.133Z,96.39
2024-03-25T00:20:04.073Z,96.18
2024-03-25T00:21:04.032Z,96.08
2024-03-25T00:22:04.025Z,96.18
2024-03-25T00:23:04.032Z,96.28
2024-03-25T00:24:04.004Z,96.39
2024-03-25T00:25:04.008Z,96.49
2024-03-25T00:26:03.990Z,96.59
2024-03-25T00:27:03.981Z,96.59
2024-03-25T00:28:03.956Z,96.18
2024-03-25T00:29:03.978Z,95.98
2024-03-25T00:30:03.936Z,96.08
2024-03-25T00:31:03.939Z,96.28
2024-03-25T00:32:03.923Z,96.28
2024-03-25T00:33:03.915Z,96.28
2024-03-25T00:34:03.925Z,96.39
2024-03-25T00:35:03.894Z,96.49
2024-03-25T00:36:03.873Z,96.49
2024-03-25T00:37:03.908Z,96.49
2024-03-25T00:38:03.856Z,96.49
2024-03-25T00:39:03.856Z,96.59
2024-03-25T00:40:03.838Z,96.39
2024-03-25T00:41:03.812Z,96.39
2024-03-25T00:42:03.859Z,96.49
2024-03-25T00:43:03.833Z,96.70
2024-03-25T00:44:03.778Z,96.91
2024-03-25T00:45:03.808Z,96.91
2024-03-25T00:46:03.773Z,97.05
2024-03-25T00:47:03.785Z,97.16
2024-03-25T00:48:03.747Z,97.36
2024-03-25T00:49:03.755Z,97.36
2024-03-25T00:50:03.763Z,97.47
2024-03-25T00:51:03.707Z,97.52
2024-03-25T00:52:03.703Z,97.63
2024-03-25T00:53:03.685Z,97.63
2024-03-25T00:54:03.673Z,97.56
2024-03-25T00:55:03.690Z,97.63
2024-03-25T00:56:03.669Z,97.77
2024-03-25T00:57:03.645Z,97.73
2024-03-25T00:58:03.631Z,97.73
2024-03-25T00:59:03.609Z,97.77
2024-03-25T01:00:03.617Z,97.88
2024-03-25T01:01:03.608Z,97.88
2024-03-25T01:02:03.591Z,97.88
2024-03-25T01:03:03.581Z,97.88
2024-03-25T01:04:03.564Z,97.98
2024-03-25T01:05:03.546Z,98.08
2024-03-25T01:06:03.531Z,98.19
2024-03-25T01:07:03.569Z,98.29
2024-03-25T01:08:03.515Z,98.39
2024-03-25T01:09:03.499Z,98.50
2024-03-25T01:10:03.523Z,98.60
2024-03-25T01:11:03.479Z,98.60
2024-03-25T01:12:03.532Z,98.60
2024-03-25T01:13:03.480Z,98.70
2024-03-25T01:14:03.457Z,98.80
2024-03-25T01:15:03.427Z,98.80
2024-03-25T01:16:03.446Z,98.80
2024-03-25T01:17:03.413Z,98.80
2024-03-25T01:18:03.562Z,98.80
2024-03-25T01:19:03.441Z,98.91
2024-03-25T01:20:03.379Z,98.91
2024-03-25T01:21:03.416Z,98.91
2024-03-25T01:22:03.357Z,99.01
2024-03-25T01:23:03.364Z,98.91
2024-03-25T01:24:03.350Z,98.80
2024-03-25T01:25:03.373Z,98.70
2024-03-25T01:26:03.321Z,98.70
2024-03-25T01:27:03.354Z,98.80
2024-03-25T01:28:03.308Z,98.60
2024-03-25T01:29:03.276Z,98.70
2024-03-25T01:30:03.280Z,98.70
2024-03-25T01:31:03.266Z,98.60
2024-03-25T01:32:03.260Z,98.60
2024-03-25T01:33:03.254Z,98.50
2024-03-25T01:34:03.273Z,98.50
2024-03-25T01:35:03.224Z,98.60
2024-03-25T01:36:03.218Z,98.60
2024-03-25T01:37:03.221Z,98.70
2024-03-25T01:38:03.182Z,98.70
2024-03-25T01:39:03.216Z,98.70
2024-03-25T01:40:03.167Z,98.60
2024-03-25T01:41:03.147Z,98.50
2024-03-25T01:42:03.147Z,98.60
2024-03-25T01:43:03.167Z,98.70
2024-03-25T01:44:03.164Z,98.70
2024-03-25T01:45:03.133Z,98.70
2024-03-25T01:46:03.101Z,98.70
2024-03-25T01:47:03.097Z,98.70
2024-03-25T01:48:03.090Z,98.70
2024-03-25T01:49:03.098Z,98.60
2024-03-25T01:50:03.070Z,98.50
2024-03-25T01:51:03.042Z,98.39
2024-03-25T01:52:03.026Z,98.50
2024-03-25T01:53:03.075Z,98.50
2024-03-25T01:54:02.993Z,98.45
2024-03-25T01:55:03.023Z,98.50
2024-03-25T01:56:02.982Z,98.50
2024-03-25T01:57:02.976Z,98.50
2024-03-25T01:58:03.013Z,98.50
2024-03-25T01:59:02.957Z,98.60
2024-03-25T02:00:02.961Z,98.70
2024-03-25T02:01:02.988Z,98.80
2024-03-25T02:02:02.957Z,98.91
2024-03-25T02:03:02.931Z,98.97
2024-03-25T02:04:02.962Z,99.07
2024-03-25T02:05:02.930Z,99.07
2024-03-25T02:06:03.002Z,99.07
2024-03-25T02:07:02.956Z,99.07
2024-03-25T02:08:02.885Z,99.22
2024-03-25T02:09:02.878Z,99.22
2024-03-25T02:10:02.937Z,99.11
2024-03-25T02:11:02.821Z,99.11
2024-03-25T02:12:02.971Z,99.11
2024-03-25T02:13:02.906Z,99.22
2024-03-25T02:14:02.838Z,99.11
2024-03-25T02:15:02.786Z,99.01
2024-03-25T02:16:02.838Z,99.01
2024-03-25T02:17:02.778Z,99.06
2024-03-25T02:18:02.788Z,99.16
2024-03-25T02:19:02.761Z,99.16
2024-03-25T02:20:02.786Z,99.16
2024-03-25T02:21:02.705Z,99.26
2024-03-25T02:22:02.758Z,99.26
2024-03-25T02:23:02.680Z,99.26
2024-03-25T02:24:02.678Z,99.37
2024-03-25T02:25:02.699Z,99.37
2024-03-25T02:26:02.650Z,99.47
2024-03-25T02:27:02.653Z,99.57
2024-03-25T02:28:02.649Z,99.57
2024-03-25T02:29:02.629Z,99.68
2024-03-25T02:30:02.625Z,99.78
2024-03-25T02:31:02.665Z,99.82
2024-03-25T02:32:02.600Z,99.82
2024-03-25T02:33:02.561Z,99.93
2024-03-25T02:34:02.556Z,99.99
2024-03-25T02:35:02.556Z,99.99
2024-03-25T02:36:02.548Z,99.99
2024-03-25T02:37:02.530Z,99.99
2024-03-25T02:38:02.507Z,99.99
2024-03-25T02:39:02.488Z,99.99
2024-03-25T02:40:02.511Z,99.99
2024-03-25T02:41:02.469Z,99.99
2024-03-25T02:42:02.473Z,99.99
2024-03-25T02:43:02.479Z,99.99
2024-03-25T02:44:02.444Z,99.99
2024-03-25T02:45:02.425Z,99.99
2024-03-25T02:46:02.424Z,99.99
2024-03-25T02:47:02.413Z,99.99
2024-03-25T02:48:02.421Z,99.99
2024-03-25T02:49:02.398Z,99.99
2024-03-25T02:50:02.435Z,99.99
2024-03-25T02:51:02.379Z,99.99
2024-03-25T02:52:02.356Z,99.99
2024-03-25T02:53:02.338Z,99.99
2024-03-25T02:54:02.345Z,99.99
2024-03-25T02:55:02.367Z,99.99
2024-03-25T02:56:02.303Z,99.99
2024-03-25T02:57:02.306Z,99.99
2024-03-25T02:58:02.294Z,99.99
2024-03-25T02:59:02.292Z,99.99
2024-03-25T03:00:02.324Z,99.99
2024-03-25T03:01:02.269Z,99.99
2024-03-25T03:02:02.251Z,99.99
2024-03-25T03:03:02.244Z,99.99
2024-03-25T03:04:02.233Z,99.88
2024-03-25T03:05:02.239Z,99.78
2024-03-25T03:06:02.224Z,99.57
2024-03-25T03:07:02.197Z,99.37
2024-03-25T03:08:02.190Z,99.37
2024-03-25T03:09:02.160Z,99.37
2024-03-25T03:10:02.179Z,99.37
2024-03-25T03:11:02.146Z,99.26
2024-03-25T03:12:02.157Z,99.26
2024-03-25T03:13:02.136Z,99.26
2024-03-25T03:14:02.133Z,99.26
2024-03-25T03:15:02.106Z,99.06
2024-03-25T03:16:02.095Z,98.96
2024-03-25T03:17:02.115Z,98.96
2024-03-25T03:18:02.062Z,98.96
2024-03-25T03:19:02.076Z,98.96
2024-03-25T03:20:02.139Z,98.85
2024-03-25T03:21:02.051Z,98.75
2024-03-25T03:22:02.032Z,98.65
2024-03-25T03:23:02.066Z,98.54
2024-03-25T03:24:02.007Z,98.44
2024-03-25T03:25:02.009Z,98.33
2024-03-25T03:26:02.017Z,98.33
2024-03-25T03:27:01.967Z,97.92
2024-03-25T03:28:01.957Z,97.72
2024-03-25T03:29:01.958Z,97.82
2024-03-25T03:30:02.002Z,97.72
2024-03-25T03:31:01.932Z,97.72
2024-03-25T03:32:01.903Z,97.82
2024-03-25T03:33:01.914Z,97.92
2024-03-25T03:34:01.893Z,97.92
2024-03-25T03:35:01.925Z,97.82
2024-03-25T03:36:01.919Z,97.72
2024-03-25T03:37:01.860Z,97.72
2024-03-25T03:38:01.869Z,97.82
2024-03-25T03:39:01.831Z,97.72
2024-03-25T03:40:01.830Z,97.61
2024-03-25T03:41:01.830Z,97.30
2024-03-25T03:42:01.830Z,97.30
2024-03-25T03:43:01.799Z,97.30
2024-03-25T03:44:01.799Z,97.41
2024-03-25T03:45:01.773Z,97.51
2024-03-25T03:46:01.746Z,97.61
2024-03-25T03:47:01.769Z,97.61
2024-03-25T03:48:01.720Z,97.51
2024-03-25T03:49:01.756Z,97.51
2024-03-25T03:50:01.723Z,97.51
2024-03-25T03:51:01.700Z,97.51
2024-03-25T03:52:01.697Z,97.72
2024-03-25T03:53:01.709Z,97.72
2024-03-25T03:54:01.673Z,97.82
2024-03-25T03:55:01.671Z,97.82
2024-03-25T03:56:01.681Z,97.82
2024-03-25T03:57:01.627Z,98.02
2024-03-25T03:58:01.616Z,98.13
2024-03-25T03:59:01.671Z,98.13
2024-03-25T04:00:01.599Z,98.13
2024-03-25T04:01:01.615Z,98.13
2024-03-25T04:02:01.604Z,98.23
2024-03-25T04:03:01.564Z,98.13
2024-03-25T04:04:01.563Z,98.02
2024-03-25T04:05:01.589Z,97.92
2024-03-25T04:06:01.527Z,98.02
2024-03-25T04:07:01.540Z,98.02
2024-03-25T04:08:01.520Z,98.02
2024-03-25T04:09:01.510Z,98.02
2024-03-25T04:10:01.511Z,98.13
2024-03-25T04:11:01.500Z,98.13
2024-03-25T04:12:01.480Z,98.23
2024-03-25T04:13:01.486Z,98.33
2024-03-25T04:14:01.471Z,98.33
2024-03-25T04:15:01.425Z,98.44
2024-03-25T04:16:01.416Z,98.33
2024-03-25T04:17:01.463Z,98.44
2024-03-25T04:18:01.397Z,98.44
2024-03-25T04:19:01.409Z,98.38
2024-03-25T04:20:01.401Z,98.28
2024-03-25T04:21:01.370Z,98.18
2024-03-25T04:22:01.377Z,98.28
2024-03-25T04:23:01.407Z,98.28
2024-03-25T04:24:01.331Z,98.28
2024-03-25T04:25:01.336Z,98.28
2024-03-25T04:26:01.339Z,98.53
2024-03-25T04:27:01.305Z,98.63
2024-03-25T04:28:01.284Z,98.74
2024-03-25T04:29:01.328Z,98.94
2024-03-25T04:30:01.314Z,98.94
2024-03-25T04:31:01.274Z,99.09
2024-03-25T04:32:01.266Z,99.09
2024-03-25T04:33:01.251Z,99.30
2024-03-25T04:34:01.218Z,99.30
2024-03-25T04:35:01.249Z,99.34
2024-03-25T04:36:01.215Z,99.44
2024-03-25T04:37:01.200Z,99.55
2024-03-25T04:38:01.182Z,99.55
2024-03-25T04:39:01.165Z,99.55
2024-03-25T04:40:01.150Z,99.55
2024-03-25T04:41:01.151Z,99.55
2024-03-25T04:42:01.165Z,99.65
2024-03-25T04:43:01.139Z,99.70
2024-03-25T04:44:01.138Z,99.80
2024-03-25T04:45:01.095Z,99.80
2024-03-25T04:46:01.124Z,99.91
2024-03-25T04:47:01.082Z,99.80
2024-03-25T04:48:01.058Z,99.80
2024-03-25T04:49:01.061Z,99.85
2024-03-25T04:50:01.049Z,99.95
2024-03-25T04:51:01.024Z,99.95
2024-03-25T04:52:01.027Z,99.99
2024-03-25T04:53:01.016Z,99.99
2024-03-25T04:54:01.013Z,99.99
2024-03-25T04:55:00.991Z,99.99
2024-03-25T04:56:01.029Z,99.99
2024-03-25T04:57:00.960Z,99.99
2024-03-25T04:58:00.953Z,99.99
2024-03-25T04:59:00.969Z,99.99
2024-03-25T05:00:00.930Z,99.99
2024-03-25T05:01:00.955Z,99.99
2024-03-25T05:02:00.923Z,99.99
2024-03-25T05:03:00.895Z,99.99
2024-03-25T05:04:02.986Z,99.99
2024-03-25T05:05:00.889Z,99.99
2024-03-25T05:06:00.870Z,99.99
2024-03-25T05:07:00.865Z,99.99
2024-03-25T05:08:00.858Z,99.99
2024-03-25T05:09:00.823Z,99.99
2024-03-25T05:10:01.668Z,99.99
2024-03-25T05:11:00.835Z,99.99
2024-03-25T05:12:00.809Z,99.99
2024-03-25T05:13:00.801Z,99.99
2024-03-25T05:14:00.799Z,99.99
2024-03-25T05:15:00.799Z,99.99
2024-03-25T05:16:00.761Z,99.99
2024-03-25T05:17:00.757Z,99.99
2024-03-25T05:18:00.718Z,99.99
2024-03-25T05:19:00.727Z,99.99
2024-03-25T05:20:00.716Z,99.99
2024-03-25T05:21:00.689Z,99.99
2024-03-25T05:22:00.686Z,99.99
2024-03-25T05:23:00.698Z,99.99
2024-03-25T05:24:00.654Z,99.99
2024-03-25T05:25:00.669Z,99.99
2024-03-25T05:26:00.661Z,99.99
2024-03-25T05:27:00.618Z,99.99
2024-03-25T05:28:00.640Z,99.99
2024-03-25T05:29:00.600Z,99.99
2024-03-25T05:30:01.478Z,99.99
2024-03-25T05:31:00.596Z,99.99
2024-03-25T05:32:00.614Z,99.99
2024-03-25T05:33:00.587Z,99.99
2024-03-25T05:34:00.552Z,99.99
2024-03-25T05:35:00.541Z,99.99
2024-03-25T05:36:00.537Z,99.99
2024-03-25T05:37:00.532Z,99.99
2024-03-25T05:38:00.527Z,99.99
2024-03-25T05:39:00.491Z,99.99
2024-03-25T05:40:00.481Z,99.99
2024-03-25T05:41:00.530Z,99.99
2024-03-25T05:42:00.490Z,99.99
2024-03-25T05:43:00.468Z,99.99
2024-03-25T05:44:00.472Z,99.99
2024-03-25T05:45:00.427Z,99.99
2024-03-25T05:46:00.415Z,99.99
2024-03-25T05:47:00.431Z,99.99
2024-03-25T05:48:00.392Z,99.99
2024-03-25T05:49:00.402Z,99.99
2024-03-25T05:50:00.403Z,99.99
2024-03-25T05:51:00.349Z,99.99
2024-03-25T05:52:00.373Z,99.99
2024-03-25T05:53:00.398Z,99.99
2024-03-25T05:54:00.328Z,99.99
2024-03-25T05:55:00.350Z,99.99
2024-03-25T05:56:00.315Z,99.99
2024-03-25T05:57:00.291Z,99.99
2024-03-25T05:58:00.282Z,99.99
2024-03-25T05:59:00.282Z,99.99
2024-03-25T06:00:00.406Z,99.99
2024-03-25T06:01:00.382Z,99.99
2024-03-25T06:02:00.239Z,99.99
2024-03-25T06:03:00.220Z,99.99
2024-03-25T06:04:00.250Z,99.99
2024-03-25T06:05:00.207Z,99.99
2024-03-25T06:06:00.204Z,99.99
2024-03-25T06:07:00.202Z,99.99
2024-03-25T06:08:00.172Z,99.99
2024-03-25T06:09:00.167Z,99.99
2024-03-25T06:10:00.208Z,99.99
2024-03-25T06:11:00.138Z,99.99
2024-03-25T06:12:00.151Z,99.99
2024-03-25T06:13:00.140Z,99.99
2024-03-25T06:14:00.109Z,99.99
2024-03-25T06:15:00.126Z,99.99
2024-03-25T06:16:00.091Z,99.99
2024-03-25T06:17:00.074Z,99.99
2024-03-25T06:18:00.085Z,99.99
2024-03-25T06:19:00.078Z,99.99
2024-03-25T06:20:00.057Z,99.99
2024-03-25T06:21:00.024Z,99.99
2024-03-25T06:22:00.048Z,99.99
2024-03-25T06:23:00.055Z,99.99
2024-03-25T06:24:00.015Z,99.99
2024-03-25T06:24:59.994Z,99.99
2024-03-25T06:25:59.973Z,99.99
2024-03-25T06:26:59.957Z,99.99
2024-03-25T06:27:59.947Z,99.99
2024-03-25T06:28:59.955Z,99.99
2024-03-25T06:29:59.929Z,99.99
2024-03-25T06:30:59.931Z,99.99
2024-03-25T06:31:59.912Z,99.99
2024-03-25T06:32:59.914Z,99.99
2024-03-25T06:33:59.905Z,99.99
2024-03-25T06:34:59.892Z,99.99
2024-03-25T06:35:59.958Z,99.99
2024-03-25T06:36:59.877Z,99.99
2024-03-25T06:37:59.838Z,99.99
2024-03-25T06:38:59.846Z,99.99
2024-03-25T06:39:59.820Z,99.99
2024-03-25T06:40:59.804Z,99.99
2024-03-25T06:41:59.798Z,99.99
2024-03-25T06:42:59.795Z,99.99
2024-03-25T06:43:59.770Z,99.99
2024-03-25T06:44:59.764Z,99.99
2024-03-25T06:45:59.860Z,99.99
2024-03-25T06:46:59.733Z,99.99
2024-03-25T06:47:59.733Z,99.99
2024-03-25T06:48:59.738Z,99.99
2024-03-25T06:49:59.721Z,99.99
2024-03-25T06:50:59.690Z,99.99
2024-03-25T06:51:59.682Z,99.99
2024-03-25T06:52:59.683Z,99.99
2024-03-25T06:53:59.678Z,99.99
2024-03-25T06:54:59.668Z,99.99
2024-03-25T06:55:59.668Z,99.99
2024-03-25T06:56:59.627Z,99.99
2024-03-25T06:57:59.629Z,99.99
2024-03-25T06:58:59.603Z,99.99
2024-03-25T07:00:01.194Z,99.99
2024-03-25T07:00:59.617Z,99.99
2024-03-25T07:01:59.574Z,99.99
2024-03-25T07:02:59.556Z,99.99
2024-03-25T07:03:59.571Z,99.99
2024-03-25T07:04:59.539Z,99.99
2024-03-25T07:05:59.536Z,99.99
2024-03-25T07:06:59.571Z,99.99
2024-03-25T07:07:59.507Z,99.99
2024-03-25T07:08:59.491Z,99.99
2024-03-25T07:09:59.484Z,99.99
2024-03-25T07:10:59.480Z,99.99
2024-03-25T07:11:59.483Z,99.99
2024-03-25T07:12:59.471Z,99.99
2024-03-25T07:13:59.437Z,99.99
2024-03-25T07:14:59.425Z,99.99
2024-03-25T07:15:59.415Z,99.99
2024-03-25T07:16:59.415Z,99.99
2024-03-25T07:17:59.389Z,99.99
2024-03-25T07:18:59.396Z,99.99
2024-03-25T07:19:59.373Z,99.99
2024-03-25T07:20:59.361Z,99.99
2024-03-25T07:21:59.356Z,99.99
2024-03-25T07:22:59.336Z,99.99
2024-03-25T07:23:59.343Z,99.99
2024-03-25T07:24:59.350Z,99.99
2024-03-25T07:25:59.311Z,99.99
2024-03-25T07:26:59.296Z,99.99
2024-03-25T07:27:59.293Z,99.99
2024-03-25T07:28:59.293Z,99.99
2024-03-25T07:29:59.268Z,99.99
2024-03-25T07:30:59.265Z,99.99
2024-03-25T07:31:59.248Z,99.99
2024-03-25T07:32:59.223Z,99.99
2024-03-25T07:33:59.219Z,99.99
2024-03-25T07:34:59.209Z,99.99
2024-03-25T07:35:59.214Z,99.99
2024-03-25T07:36:59.191Z,99.74
2024-03-25T07:37:59.176Z,99.74
2024-03-25T07:38:59.172Z,99.74
2024-03-25T07:39:59.441Z,99.80
2024-03-25T07:40:59.156Z,99.90
2024-03-25T07:41:59.184Z,99.90
2024-03-25T07:42:59.156Z,99.96
2024-03-25T07:43:59.132Z,99.86
2024-03-25T07:44:59.104Z,99.55
2024-03-25T07:45:59.147Z,99.55
2024-03-25T07:46:59.075Z,99.55
2024-03-25T07:47:59.107Z,99.55
2024-03-25T07:48:59.082Z,99.44
2024-03-25T07:49:59.063Z,99.34
2024-03-25T07:50:59.037Z,99.44
2024-03-25T07:51:59.030Z,99.55
2024-03-25T07:52:59.032Z,99.44
2024-03-25T07:53:58.996Z,99.34
2024-03-25T07:54:59.010Z,99.34
2024-03-25T07:55:59.007Z,99.24
2024-03-25T07:56:58.981Z,98.99
2024-03-25T07:57:58.990Z,98.79
2024-03-25T07:58:58.948Z,98.68
2024-03-25T07:59:58.947Z,98.47
2024-03-25T08:00:58.924Z,98.27
2024-03-25T08:01:58.932Z,98.00
2024-03-25T08:02:58.908Z,97.60
2024-03-25T08:03:58.957Z,97.69
2024-03-25T08:04:58.876Z,97.60
2024-03-25T08:05:58.878Z,97.55
2024-03-25T08:06:58.909Z,97.75
2024-03-25T08:07:58.848Z,97.86
2024-03-25T08:08:58.866Z,97.75
2024-03-25T08:09:58.814Z,97.65
2024-03-25T08:10:58.808Z,97.65
2024-03-25T08:11:58.785Z,97.55
2024-03-25T08:12:58.825Z,97.34
2024-03-25T08:13:58.787Z,96.52
2024-03-25T08:14:58.767Z,96.21
2024-03-25T08:15:58.754Z,95.08
2024-03-25T08:16:58.729Z,95.28
2024-03-25T08:17:58.721Z,95.24
2024-03-25T08:18:58.738Z,95.34
2024-03-25T08:19:58.717Z,95.75
2024-03-25T08:20:59.465Z,95.81
2024-03-25T08:21:58.696Z,95.61
2024-03-25T08:22:58.671Z,95.20
2024-03-25T08:23:58.741Z,95.09
2024-03-25T08:24:58.660Z,94.84
2024-03-25T08:25:58.730Z,94.64
2024-03-25T08:26:58.624Z,94.74
2024-03-25T08:27:58.622Z,94.74
2024-03-25T08:28:58.669Z,94.64
2024-03-25T08:29:58.587Z,94.59
2024-03-25T08:30:58.642Z,94.49
2024-03-25T08:31:58.578Z,93.57
2024-03-25T08:32:58.560Z,92.54
2024-03-25T08:33:58.552Z,92.44
2024-03-25T08:34:58.531Z,92.33
2024-03-25T08:35:58.546Z,91.82
2024-03-25T08:36:58.532Z,91.00
2024-03-25T08:37:58.513Z,90.89
2024-03-25T08:38:58.493Z,90.89
2024-03-25T08:39:58.490Z,89.97
2024-03-25T08:40:58.460Z,90.08
2024-03-25T08:41:58.455Z,89.76
2024-03-25T08:42:58.457Z,89.87
2024-03-25T08:43:58.504Z,90.18
2024-03-25T08:44:58.435Z,90.08
2024-03-25T08:45:58.424Z,90.03
2024-03-25T08:46:58.410Z,89.42
2024-03-25T08:47:58.389Z,89.62
2024-03-25T08:48:58.406Z,89.01
2024-03-25T08:49:58.375Z,88.08
2024-03-25T08:50:58.367Z,88.08
2024-03-25T08:51:58.367Z,88.39
2024-03-25T08:52:58.337Z,88.08
2024-03-25T08:53:58.325Z,87.77
2024-03-25T08:54:58.346Z,88.08
2024-03-25T08:55:58.351Z,88.59
2024-03-25T08:56:58.332Z,89.01
2024-03-25T08:57:58.314Z,88.80
2024-03-25T08:58:58.333Z,88.59
2024-03-25T08:59:58.310Z,88.70
2024-03-25T09:00:58.260Z,88.84
2024-03-25T09:01:58.253Z,88.74
2024-03-25T09:02:58.221Z,88.64
2024-03-25T09:03:58.253Z,88.74
2024-03-25T09:04:58.200Z,89.36
2024-03-25T09:05:58.217Z,89.46
2024-03-25T09:06:58.202Z,89.76
2024-03-25T09:07:58.788Z,89.46
2024-03-25T09:08:58.175Z,90.48
2024-03-25T09:09:58.197Z,89.97
2024-03-25T09:10:58.128Z,89.76
2024-03-25T09:11:58.153Z,89.97
2024-03-25T09:12:58.149Z,89.97
2024-03-25T09:13:58.103Z,88.53
2024-03-25T09:14:58.092Z,88.53
2024-03-25T09:15:58.120Z,88.74
2024-03-25T09:16:58.081Z,89.15
2024-03-25T09:17:58.089Z,89.66
2024-03-25T09:18:58.114Z,89.72
2024-03-25T09:19:58.037Z,89.93
2024-03-25T09:20:58.033Z,88.49
2024-03-25T09:21:58.017Z,88.80
2024-03-25T09:22:58.017Z,88.45
2024-03-25T09:23:58.003Z,87.84
2024-03-25T09:24:58.022Z,87.63
2024-03-25T09:25:57.988Z,87.43
2024-03-25T09:26:57.963Z,87.94
2024-03-25T09:27:58.003Z,87.94
2024-03-25T09:28:57.995Z,88.35
2024-03-25T09:29:57.947Z,88.24
2024-03-25T09:30:57.973Z,87.94
2024-03-25T09:31:57.965Z,87.84
2024-03-25T09:32:57.917Z,85.99
2024-03-25T09:33:57.917Z,86.81
2024-03-25T09:34:58.735Z,86.60
2024-03-25T09:35:57.868Z,85.41
2024-03-25T09:36:57.897Z,86.13
2024-03-25T09:37:57.917Z,86.75
2024-03-25T09:38:57.872Z,87.67
2024-03-25T09:39:57.841Z,84.90
2024-03-25T09:40:57.802Z,86.44
2024-03-25T09:41:57.822Z,87.16
2024-03-25T09:42:57.829Z,88.04
2024-03-25T09:43:57.781Z,88.56
2024-03-25T09:44:57.760Z,88.24
2024-03-25T09:45:57.822Z,87.70
2024-03-25T09:46:57.745Z,87.38
2024-03-25T09:47:57.735Z,85.74
2024-03-25T09:48:57.817Z,85.23
2024-03-25T09:49:57.812Z,85.33
2024-03-25T09:50:57.822Z,85.74
2024-03-25T09:51:57.684Z,86.46
2024-03-25T09:52:57.687Z,85.23
2024-03-25T09:53:57.680Z,84.41
2024-03-25T09:54:57.685Z,84.10
2024-03-25T09:55:57.735Z,84.31
2024-03-25T09:56:57.681Z,83.90
2024-03-25T09:57:57.655Z,84.31
2024-03-25T09:58:57.629Z,84.31
2024-03-25T09:59:57.720Z,84.04
2024-03-25T10:00:57.620Z,84.04
2024-03-25T10:01:57.578Z,83.69
2024-03-25T10:02:57.576Z,84.20
2024-03-25T10:03:57.605Z,83.18
2024-03-25T10:04:57.540Z,79.55
2024-03-25T10:05:57.640Z,81.09
2024-03-25T10:06:57.576Z,80.54
2024-03-25T10:07:57.514Z,80.03
2024-03-25T10:08:57.527Z,79.52
2024-03-25T10:09:57.539Z,78.28
2024-03-25T10:10:57.473Z,79.17
2024-03-25T10:11:57.473Z,78.25
2024-03-25T10:12:57.520Z,78.56
2024-03-25T10:13:57.440Z,78.86
2024-03-25T10:14:57.545Z,77.73
2024-03-25T10:15:57.431Z,77.02
2024-03-25T10:16:57.415Z,76.10
2024-03-25T10:17:57.394Z,77.23
2024-03-25T10:18:57.483Z,76.92
2024-03-25T10:19:57.393Z,77.23
2024-03-25T10:20:57.360Z,78.86
2024-03-25T10:21:57.358Z,79.58
2024-03-25T10:22:57.387Z,79.58
2024-03-25T10:23:57.418Z,79.89
2024-03-25T10:24:57.366Z,81.01
2024-03-25T10:25:57.308Z,81.01
2024-03-25T10:26:57.313Z,81.01
2024-03-25T10:27:57.329Z,80.40
2024-03-25T10:28:57.284Z,80.71
2024-03-25T10:29:58.174Z,80.77
2024-03-25T10:30:57.279Z,79.96
2024-03-25T10:31:57.253Z,79.96
2024-03-25T10:32:57.258Z,80.88
2024-03-25T10:33:57.222Z,80.67
2024-03-25T10:34:58.764Z,80.67
2024-03-25T10:35:57.237Z,80.57
2024-03-25T10:36:57.310Z,81.79
2024-03-25T10:37:57.173Z,80.51
2024-03-25T10:38:57.296Z,80.91
2024-03-25T10:39:57.205Z,80.81
2024-03-25T10:40:57.141Z,80.85
2024-03-25T10:41:57.225Z,81.26
2024-03-25T10:42:57.208Z,81.15
2024-03-25T10:43:57.131Z,80.07
2024-03-25T10:44:57.089Z,79.86
2024-03-25T10:45:57.080Z,80.88
2024-03-25T10:46:57.210Z,80.88
2024-03-25T10:47:57.072Z,80.13
2024-03-25T10:48:57.070Z,80.54
2024-03-25T10:49:57.057Z,80.33
2024-03-25T10:50:57.028Z,80.30
2024-03-25T10:51:57.010Z,80.09
2024-03-25T10:52:57.028Z,79.99
2024-03-25T10:53:57.115Z,79.96
2024-03-25T10:54:57.058Z,79.54
2024-03-25T10:55:57.006Z,79.85
2024-03-25T10:56:57.009Z,79.20
2024-03-25T10:57:57.044Z,78.17
2024-03-25T10:58:56.974Z,76.43
2024-03-25T10:59:57.067Z,75.01
2024-03-25T11:00:56.934Z,75.04
2024-03-25T11:01:56.901Z,74.94
2024-03-25T11:02:57.001Z,75.04
2024-03-25T11:03:56.894Z,75.96
2024-03-25T11:04:56.932Z,75.65
2024-03-25T11:05:56.870Z,75.24
2024-03-25T11:06:56.911Z,74.63
2024-03-25T11:07:56.869Z,76.27
2024-03-25T11:08:56.859Z,77.15
2024-03-25T11:09:56.861Z,77.67
2024-03-25T11:10:56.829Z,75.42
2024-03-25T11:11:56.807Z,75.17
2024-03-25T11:12:56.818Z,76.61
2024-03-25T11:13:56.778Z,75.99
2024-03-25T11:14:56.804Z,73.64
2024-03-25T11:15:56.756Z,73.40
2024-03-25T11:16:56.741Z,73.61
2024-03-25T11:17:56.727Z,73.54
2024-03-25T11:18:56.787Z,72.00
2024-03-25T11:19:56.858Z,73.33
2024-03-25T11:20:56.707Z,73.06
2024-03-25T11:21:56.698Z,73.57
2024-03-25T11:22:56.681Z,73.78
2024-03-25T11:23:56.673Z,73.78
2024-03-25T11:24:56.666Z,73.47
2024-03-25T11:25:56.637Z,73.78
2024-03-25T11:26:56.658Z,72.55
2024-03-25T11:27:56.608Z,73.54
2024-03-25T11:28:56.598Z,73.64
2024-03-25T11:29:56.606Z,73.94
2024-03-25T11:30:56.629Z,73.44
2024-03-25T11:31:56.598Z,74.02
2024-03-25T11:32:56.557Z,72.69
2024-03-25T11:33:56.546Z,73.30
2024-03-25T11:34:56.539Z,73.71
2024-03-25T11:35:56.518Z,72.89
2024-03-25T11:36:56.597Z,74.11
2024-03-25T11:37:56.526Z,72.69
2024-03-25T11:38:56.476Z,73.91
2024-03-25T11:39:56.516Z,74.52
2024-03-25T11:40:56.469Z,74.52
2024-03-25T11:41:56.458Z,74.29
2024-03-25T11:42:56.502Z,75.31
2024-03-25T11:43:56.508Z,75.51
2024-03-25T11:45:00.965Z,74.69
2024-03-25T11:45:56.415Z,75.45
2024-03-25T11:46:56.451Z,76.37
2024-03-25T11:47:56.404Z,78.00
2024-03-25T11:48:56.430Z,78.31
2024-03-25T11:49:56.366Z,76.88
2024-03-25T11:50:56.367Z,77.29
2024-03-25T11:51:56.347Z,75.85
2024-03-25T11:52:56.323Z,77.08
2024-03-25T11:53:56.352Z,77.80
2024-03-25T11:54:56.333Z,76.50
2024-03-25T11:55:56.312Z,77.53
2024-03-25T11:56:56.297Z,78.41
2024-03-25T11:57:56.289Z,78.72
2024-03-25T11:58:56.292Z,78.92
2024-03-25T11:59:56.292Z,77.80
2024-03-25T12:00:56.259Z,77.25
2024-03-25T12:01:56.338Z,75.55
2024-03-25T12:02:56.243Z,75.45
2024-03-25T12:03:56.211Z,72.28
2024-03-25T12:04:56.193Z,74.43
2024-03-25T12:05:56.226Z,72.17
2024-03-25T12:06:56.190Z,72.21
2024-03-25T12:07:56.198Z,72.48
2024-03-25T12:08:56.691Z,73.27
2024-03-25T12:09:56.144Z,72.86
2024-03-25T12:10:56.135Z,71.29
2024-03-25T12:11:56.131Z,73.44
2024-03-25T12:12:56.174Z,74.22
2024-03-25T12:13:56.106Z,74.29
2024-03-25T12:14:56.106Z,73.03
2024-03-25T12:15:56.093Z,72.31
2024-03-25T12:16:56.070Z,70.51
2024-03-25T12:17:56.069Z,71.22
2024-03-25T12:18:56.091Z,73.30
2024-03-25T12:19:56.067Z,73.03
2024-03-25T12:20:56.041Z,72.86
2024-03-25T12:21:56.033Z,75.14
2024-03-25T12:22:56.029Z,77.01
2024-03-25T12:23:55.984Z,78.69
2024-03-25T12:24:56.020Z,80.83
2024-03-25T12:25:55.971Z,81.08
2024-03-25T12:26:56.193Z,81.49
2024-03-25T12:27:55.956Z,81.79
2024-03-25T12:28:55.933Z,81.70
2024-03-25T12:29:55.910Z,82.41
2024-03-25T12:30:55.967Z,82.37
2024-03-25T12:31:55.924Z,81.24
2024-03-25T12:32:55.893Z,80.74
2024-03-25T12:33:55.909Z,81.56
2024-03-25T12:34:55.881Z,81.04
2024-03-25T12:35:55.914Z,79.71
2024-03-25T12:36:55.873Z,76.34
2024-03-25T12:37:55.849Z,76.50
2024-03-25T12:38:55.862Z,76.61
2024-03-25T12:39:55.824Z,76.71
2024-03-25T12:40:55.799Z,73.44
2024-03-25T12:41:55.803Z,74.15
2024-03-25T12:42:55.804Z,75.10
2024-03-25T12:43:55.786Z,75.99
2024-03-25T12:44:55.760Z,77.01
2024-03-25T12:45:55.744Z,76.71
2024-03-25T12:46:55.741Z,77.42
2024-03-25T12:47:55.724Z,77.39
2024-03-25T12:48:55.795Z,76.74
2024-03-25T12:49:55.705Z,75.82
2024-03-25T12:50:55.748Z,75.62
2024-03-25T12:51:56.197Z,70.92